sensor_id;sensor_type;location;lat;lon;timestamp;temperature;humidity
12604;DHT22;6367;52.508;13.284;2022-09-09T00:21:15;18.70;99.90
12604;DHT22;6367;52.508;13.284;2022-09-09T00:23:50;18.80;99.90
12604;DHT22;6367;52.508;13.284;2022-09-09T00:29:05;18.70;99.90
12604;DHT22;6367;52.508;13.284;2022-09-09T00:31:35;18.70;99.90
12604;DHT22;6367;52.508;13.284;2022-09-09T00:34:14;18.80;99.90
12604;DHT22;6367;52.508;13.284;2022-09-09T00:36:42;18.60;99.90
12604;DHT22;6367;52.508;13.284;2022-09-09T00:39:27;18.70;99.90
12604;DHT22;6367;52.508;13.284;2022-09-09T00:45:05;18.70;99.90
12604;DHT22;6367;52.508;13.284;2022-09-09T00:58:27;18.60;99.90
12604;DHT22;6367;52.508;13.284;2022-09-09T01:01:04;18.50;99.90
12604;DHT22;6367;52.508;13.284;2022-09-09T01:03:36;18.60;99.90
12604;DHT22;6367;52.508;13.284;2022-09-09T01:06:33;18.50;99.90
12604;DHT22;6367;52.508;13.284;2022-09-09T01:17:28;18.50;99.90
12604;DHT22;6367;52.508;13.284;2022-09-09T01:25:29;18.50;99.90
12604;DHT22;6367;52.508;13.284;2022-09-09T01:28:04;18.40;99.90
12604;DHT22;6367;52.508;13.284;2022-09-09T01:30:34;18.40;99.90
12604;DHT22;6367;52.508;13.284;2022-09-09T01:33:00;18.40;99.90
12604;DHT22;6367;52.508;13.284;2022-09-09T01:35:55;19.10;99.90
12604;DHT22;6367;52.508;13.284;2022-09-09T01:38:24;18.40;99.90
12604;DHT22;6367;52.508;13.284;2022-09-09T01:40:50;18.40;99.90
12604;DHT22;6367;52.508;13.284;2022-09-09T01:43:21;18.40;99.90
12604;DHT22;6367;52.508;13.284;2022-09-09T01:45:51;18.40;99.90
12604;DHT22;6367;52.508;13.284;2022-09-09T01:48:19;18.40;99.90
12604;DHT22;6367;52.508;13.284;2022-09-09T01:50:46;18.40;99.90
12604;DHT22;6367;52.508;13.284;2022-09-09T01:53:12;18.40;99.90
12604;DHT22;6367;52.508;13.284;2022-09-09T01:55:40;18.40;99.90
12604;DHT22;6367;52.508;13.284;2022-09-09T01:58:24;18.30;99.90
12604;DHT22;6367;52.508;13.284;2022-09-09T02:01:14;18.30;99.90
12604;DHT22;6367;52.508;13.284;2022-09-09T02:03:43;18.30;99.90
12604;DHT22;6367;52.508;13.284;2022-09-09T02:08:49;18.20;99.90
12604;DHT22;6367;52.508;13.284;2022-09-09T02:11:20;18.20;99.90
12604;DHT22;6367;52.508;13.284;2022-09-09T02:13:48;18.20;99.90
12604;DHT22;6367;52.508;13.284;2022-09-09T02:16:22;18.90;99.90
12604;DHT22;6367;52.508;13.284;2022-09-09T02:18:57;18.20;99.90
12604;DHT22;6367;52.508;13.284;2022-09-09T02:21:28;18.10;99.90
12604;DHT22;6367;52.508;13.284;2022-09-09T02:23:57;18.10;99.90
12604;DHT22;6367;52.508;13.284;2022-09-09T02:26:24;18.10;99.90
12604;DHT22;6367;52.508;13.284;2022-09-09T02:28:51;18.00;99.90
12604;DHT22;6367;52.508;13.284;2022-09-09T02:31:22;17.20;99.90
12604;DHT22;6367;52.508;13.284;2022-09-09T02:33:54;18.10;99.90
12604;DHT22;6367;52.508;13.284;2022-09-09T02:36:23;18.10;99.90
12604;DHT22;6367;52.508;13.284;2022-09-09T02:38:49;18.00;99.90
12604;DHT22;6367;52.508;13.284;2022-09-09T02:41:26;18.00;99.90
12604;DHT22;6367;52.508;13.284;2022-09-09T02:43:53;18.00;99.90
12604;DHT22;6367;52.508;13.284;2022-09-09T02:46:24;18.00;99.90
12604;DHT22;6367;52.508;13.284;2022-09-09T02:49:04;18.00;99.90
12604;DHT22;6367;52.508;13.284;2022-09-09T02:51:42;18.00;99.90
12604;DHT22;6367;52.508;13.284;2022-09-09T02:54:30;18.00;99.90
12604;DHT22;6367;52.508;13.284;2022-09-09T02:57:02;17.90;99.90
12604;DHT22;6367;52.508;13.284;2022-09-09T02:59:29;18.00;99.90
12604;DHT22;6367;52.508;13.284;2022-09-09T03:01:55;18.00;99.90
12604;DHT22;6367;52.508;13.284;2022-09-09T03:04:21;18.00;99.90
12604;DHT22;6367;52.508;13.284;2022-09-09T03:06:47;18.00;99.90
12604;DHT22;6367;52.508;13.284;2022-09-09T03:09:12;17.90;99.90
12604;DHT22;6367;52.508;13.284;2022-09-09T03:11:38;17.90;99.90
12604;DHT22;6367;52.508;13.284;2022-09-09T03:14:04;17.90;99.90
12604;DHT22;6367;52.508;13.284;2022-09-09T03:16:30;17.80;99.90
12604;DHT22;6367;52.508;13.284;2022-09-09T03:18:55;17.80;99.90
12604;DHT22;6367;52.508;13.284;2022-09-09T03:21:21;17.80;99.90
12604;DHT22;6367;52.508;13.284;2022-09-09T03:23:47;17.80;99.90
12604;DHT22;6367;52.508;13.284;2022-09-09T03:26:12;17.80;99.90
12604;DHT22;6367;52.508;13.284;2022-09-09T03:28:41;17.80;99.90
12604;DHT22;6367;52.508;13.284;2022-09-09T03:31:06;17.80;99.90
12604;DHT22;6367;52.508;13.284;2022-09-09T03:33:36;17.70;99.90
12604;DHT22;6367;52.508;13.284;2022-09-09T03:36:02;17.70;99.90
12604;DHT22;6367;52.508;13.284;2022-09-09T03:38:28;17.70;99.90
12604;DHT22;6367;52.508;13.284;2022-09-09T03:40:55;17.70;99.90
12604;DHT22;6367;52.508;13.284;2022-09-09T03:43:25;17.70;99.90
12604;DHT22;6367;52.508;13.284;2022-09-09T03:45:50;17.70;99.90
12604;DHT22;6367;52.508;13.284;2022-09-09T03:48:17;17.70;99.90
12604;DHT22;6367;52.508;13.284;2022-09-09T03:50:47;17.80;99.90
12604;DHT22;6367;52.508;13.284;2022-09-09T03:53:14;17.70;99.90
12604;DHT22;6367;52.508;13.284;2022-09-09T03:55:44;17.70;99.90
12604;DHT22;6367;52.508;13.284;2022-09-09T03:58:11;17.70;99.90
12604;DHT22;6367;52.508;13.284;2022-09-09T04:00:37;18.10;99.90
12604;DHT22;6367;52.508;13.284;2022-09-09T04:03:05;18.00;99.90
12604;DHT22;6367;52.508;13.284;2022-09-09T04:05:31;18.20;99.90
12604;DHT22;6367;52.508;13.284;2022-09-09T04:07:59;17.60;99.90
12604;DHT22;6367;52.508;13.284;2022-09-09T04:10:24;17.60;99.90
12604;DHT22;6367;52.508;13.284;2022-09-09T04:12:50;17.70;99.90
12604;DHT22;6367;52.508;13.284;2022-09-09T04:15:15;17.80;99.90
12604;DHT22;6367;52.508;13.284;2022-09-09T04:17:41;18.10;99.90
12604;DHT22;6367;52.508;13.284;2022-09-09T04:20:07;17.70;99.90
12604;DHT22;6367;52.508;13.284;2022-09-09T04:22:36;17.70;99.90
12604;DHT22;6367;52.508;13.284;2022-09-09T04:25:05;17.70;99.90
12604;DHT22;6367;52.508;13.284;2022-09-09T04:27:31;17.60;99.90
12604;DHT22;6367;52.508;13.284;2022-09-09T04:29:57;17.60;99.90
12604;DHT22;6367;52.508;13.284;2022-09-09T04:32:23;17.60;99.90
12604;DHT22;6367;52.508;13.284;2022-09-09T04:34:52;17.70;99.90
12604;DHT22;6367;52.508;13.284;2022-09-09T04:37:17;17.70;99.90
12604;DHT22;6367;52.508;13.284;2022-09-09T04:39:43;17.60;99.90
12604;DHT22;6367;52.508;13.284;2022-09-09T04:42:08;17.60;99.90
12604;DHT22;6367;52.508;13.284;2022-09-09T04:44:34;17.70;99.90
12604;DHT22;6367;52.508;13.284;2022-09-09T04:46:59;17.60;99.90
12604;DHT22;6367;52.508;13.284;2022-09-09T04:49:25;17.60;99.90
12604;DHT22;6367;52.508;13.284;2022-09-09T04:51:51;17.70;99.90
12604;DHT22;6367;52.508;13.284;2022-09-09T04:54:17;17.70;99.90
12604;DHT22;6367;52.508;13.284;2022-09-09T04:56:43;18.00;99.90
12604;DHT22;6367;52.508;13.284;2022-09-09T04:59:09;17.70;99.90
12604;DHT22;6367;52.508;13.284;2022-09-09T05:01:35;17.60;99.90
12604;DHT22;6367;52.508;13.284;2022-09-09T05:04:02;18.30;99.90
12604;DHT22;6367;52.508;13.284;2022-09-09T05:06:28;17.60;99.90
12604;DHT22;6367;52.508;13.284;2022-09-09T05:08:56;18.40;99.90
12604;DHT22;6367;52.508;13.284;2022-09-09T05:11:25;17.80;99.90
12604;DHT22;6367;52.508;13.284;2022-09-09T05:13:53;17.90;99.90
12604;DHT22;6367;52.508;13.284;2022-09-09T05:16:18;17.60;99.90
12604;DHT22;6367;52.508;13.284;2022-09-09T05:18:45;17.70;99.90
12604;DHT22;6367;52.508;13.284;2022-09-09T05:21:16;18.20;99.90
12604;DHT22;6367;52.508;13.284;2022-09-09T05:23:45;18.00;99.90
12604;DHT22;6367;52.508;13.284;2022-09-09T05:26:15;17.70;99.90
12604;DHT22;6367;52.508;13.284;2022-09-09T05:28:42;17.70;99.90
12604;DHT22;6367;52.508;13.284;2022-09-09T05:31:09;18.20;99.90
12604;DHT22;6367;52.508;13.284;2022-09-09T05:33:37;17.70;99.90
12604;DHT22;6367;52.508;13.284;2022-09-09T05:36:05;17.80;99.90
12604;DHT22;6367;52.508;13.284;2022-09-09T05:38:32;17.80;99.90
12604;DHT22;6367;52.508;13.284;2022-09-09T05:41:01;17.90;99.90
12604;DHT22;6367;52.508;13.284;2022-09-09T05:43:28;17.80;99.90
12604;DHT22;6367;52.508;13.284;2022-09-09T05:46:11;17.90;99.90
12604;DHT22;6367;52.508;13.284;2022-09-09T05:48:38;18.50;99.90
12604;DHT22;6367;52.508;13.284;2022-09-09T05:51:06;18.00;99.90
12604;DHT22;6367;52.508;13.284;2022-09-09T05:53:35;18.00;99.90
12604;DHT22;6367;52.508;13.284;2022-09-09T05:56:27;18.00;99.90
12604;DHT22;6367;52.508;13.284;2022-09-09T05:58:54;18.10;99.90
12604;DHT22;6367;52.508;13.284;2022-09-09T06:01:25;18.10;99.90
12604;DHT22;6367;52.508;13.284;2022-09-09T06:03:54;18.20;99.90
12604;DHT22;6367;52.508;13.284;2022-09-09T06:06:22;18.70;99.90
12604;DHT22;6367;52.508;13.284;2022-09-09T06:08:51;18.10;99.90
12604;DHT22;6367;52.508;13.284;2022-09-09T06:11:20;18.20;99.90
12604;DHT22;6367;52.508;13.284;2022-09-09T06:13:47;18.20;99.90
12604;DHT22;6367;52.508;13.284;2022-09-09T06:16:15;18.30;99.90
12604;DHT22;6367;52.508;13.284;2022-09-09T06:18:41;19.00;99.90
12604;DHT22;6367;52.508;13.284;2022-09-09T06:21:17;19.00;99.90
12604;DHT22;6367;52.508;13.284;2022-09-09T06:23:43;18.40;99.90
12604;DHT22;6367;52.508;13.284;2022-09-09T06:26:24;18.30;99.90
12604;DHT22;6367;52.508;13.284;2022-09-09T06:28:52;18.50;99.90
12604;DHT22;6367;52.508;13.284;2022-09-09T06:31:20;18.80;99.90
12604;DHT22;6367;52.508;13.284;2022-09-09T06:33:47;19.60;99.90
12604;DHT22;6367;52.508;13.284;2022-09-09T06:36:16;19.20;99.90
12604;DHT22;6367;52.508;13.284;2022-09-09T06:38:43;19.40;99.90
12604;DHT22;6367;52.508;13.284;2022-09-09T06:41:10;19.20;99.90
12604;DHT22;6367;52.508;13.284;2022-09-09T06:43:36;19.20;99.90
12604;DHT22;6367;52.508;13.284;2022-09-09T06:46:23;19.20;99.90
12604;DHT22;6367;52.508;13.284;2022-09-09T06:48:49;19.20;99.90
12604;DHT22;6367;52.508;13.284;2022-09-09T06:51:22;19.10;99.90
12604;DHT22;6367;52.508;13.284;2022-09-09T06:53:51;19.20;99.90
12604;DHT22;6367;52.508;13.284;2022-09-09T06:56:25;19.50;99.90
12604;DHT22;6367;52.508;13.284;2022-09-09T06:58:54;19.80;99.90
12604;DHT22;6367;52.508;13.284;2022-09-09T07:01:25;20.40;99.90
12604;DHT22;6367;52.508;13.284;2022-09-09T07:03:53;20.90;99.90
12604;DHT22;6367;52.508;13.284;2022-09-09T07:06:25;21.20;99.90
12604;DHT22;6367;52.508;13.284;2022-09-09T07:08:55;21.20;99.90
12604;DHT22;6367;52.508;13.284;2022-09-09T07:11:22;21.20;99.90
12604;DHT22;6367;52.508;13.284;2022-09-09T07:13:49;21.20;99.90
12604;DHT22;6367;52.508;13.284;2022-09-09T07:16:19;21.10;99.90
12604;DHT22;6367;52.508;13.284;2022-09-09T07:18:46;21.20;99.90
12604;DHT22;6367;52.508;13.284;2022-09-09T07:21:14;21.10;99.90
12604;DHT22;6367;52.508;13.284;2022-09-09T07:23:40;21.10;99.90
12604;DHT22;6367;52.508;13.284;2022-09-09T07:26:11;21.20;99.90
12604;DHT22;6367;52.508;13.284;2022-09-09T07:28:38;21.10;99.90
12604;DHT22;6367;52.508;13.284;2022-09-09T07:31:04;21.10;99.90
12604;DHT22;6367;52.508;13.284;2022-09-09T07:33:32;21.10;99.90
12604;DHT22;6367;52.508;13.284;2022-09-09T07:36:04;21.10;99.90
12604;DHT22;6367;52.508;13.284;2022-09-09T07:38:29;21.30;99.90
12604;DHT22;6367;52.508;13.284;2022-09-09T07:41:03;21.50;99.90
12604;DHT22;6367;52.508;13.284;2022-09-09T07:43:29;21.80;99.90
12604;DHT22;6367;52.508;13.284;2022-09-09T07:45:58;21.90;99.90
12604;DHT22;6367;52.508;13.284;2022-09-09T07:48:24;22.50;99.90
12604;DHT22;6367;52.508;13.284;2022-09-09T07:50:50;22.10;99.90
12604;DHT22;6367;52.508;13.284;2022-09-09T07:53:16;22.20;99.90
12604;DHT22;6367;52.508;13.284;2022-09-09T07:55:42;22.10;99.90
12604;DHT22;6367;52.508;13.284;2022-09-09T07:58:08;21.90;99.90
12604;DHT22;6367;52.508;13.284;2022-09-09T08:00:33;21.90;99.90
12604;DHT22;6367;52.508;13.284;2022-09-09T08:02:59;21.90;99.90
12604;DHT22;6367;52.508;13.284;2022-09-09T08:05:27;21.90;99.90
12604;DHT22;6367;52.508;13.284;2022-09-09T08:07:53;21.90;99.90
12604;DHT22;6367;52.508;13.284;2022-09-09T08:10:19;22.00;99.90
12604;DHT22;6367;52.508;13.284;2022-09-09T08:12:44;22.10;99.90
12604;DHT22;6367;52.508;13.284;2022-09-09T08:15:10;21.40;99.90
12604;DHT22;6367;52.508;13.284;2022-09-09T08:17:36;22.10;99.90
12604;DHT22;6367;52.508;13.284;2022-09-09T08:20:03;22.30;99.90
12604;DHT22;6367;52.508;13.284;2022-09-09T08:22:31;22.30;99.90
12604;DHT22;6367;52.508;13.284;2022-09-09T08:24:56;22.40;99.90
12604;DHT22;6367;52.508;13.284;2022-09-09T08:27:22;22.60;99.90
12604;DHT22;6367;52.508;13.284;2022-09-09T08:29:48;22.40;99.90
12604;DHT22;6367;52.508;13.284;2022-09-09T08:32:13;22.40;99.90
12604;DHT22;6367;52.508;13.284;2022-09-09T08:34:39;22.40;99.90
12604;DHT22;6367;52.508;13.284;2022-09-09T08:37:05;22.40;99.90
12604;DHT22;6367;52.508;13.284;2022-09-09T08:39:31;22.30;99.90
12604;DHT22;6367;52.508;13.284;2022-09-09T08:42:19;22.50;99.90
12604;DHT22;6367;52.508;13.284;2022-09-09T08:47:31;22.60;99.90
12604;DHT22;6367;52.508;13.284;2022-09-09T08:58:14;22.30;99.90
12604;DHT22;6367;52.508;13.284;2022-09-09T09:01:04;22.30;99.90
12604;DHT22;6367;52.508;13.284;2022-09-09T09:03:52;22.20;99.90
12604;DHT22;6367;52.508;13.284;2022-09-09T09:11:54;22.20;99.90
12604;DHT22;6367;52.508;13.284;2022-09-09T09:14:23;22.10;99.90
12604;DHT22;6367;52.508;13.284;2022-09-09T09:17:04;22.20;99.90
12604;DHT22;6367;52.508;13.284;2022-09-09T09:19:33;22.20;99.90
12604;DHT22;6367;52.508;13.284;2022-09-09T09:25:08;22.20;99.90
12604;DHT22;6367;52.508;13.284;2022-09-09T09:30:48;22.50;99.90
12604;DHT22;6367;52.508;13.284;2022-09-09T09:33:27;22.50;99.90
12604;DHT22;6367;52.508;13.284;2022-09-09T09:35:54;22.70;99.90
12604;DHT22;6367;52.508;13.284;2022-09-09T09:38:25;22.90;99.90
12604;DHT22;6367;52.508;13.284;2022-09-09T09:40:53;23.20;99.90
12604;DHT22;6367;52.508;13.284;2022-09-09T09:43:28;23.10;99.90
12604;DHT22;6367;52.508;13.284;2022-09-09T09:45:54;23.20;99.90
12604;DHT22;6367;52.508;13.284;2022-09-09T09:48:20;23.30;99.90
12604;DHT22;6367;52.508;13.284;2022-09-09T09:50:55;23.50;99.90
12604;DHT22;6367;52.508;13.284;2022-09-09T09:53:29;23.60;99.90
12604;DHT22;6367;52.508;13.284;2022-09-09T09:56:30;23.70;99.90
12604;DHT22;6367;52.508;13.284;2022-09-09T09:58:50;23.80;99.90
12604;DHT22;6367;52.508;13.284;2022-09-09T10:01:27;24.20;99.90
12604;DHT22;6367;52.508;13.284;2022-09-09T10:04:02;23.90;99.90
12604;DHT22;6367;52.508;13.284;2022-09-09T10:06:36;23.90;99.90
12604;DHT22;6367;52.508;13.284;2022-09-09T10:09:17;24.00;99.90
12604;DHT22;6367;52.508;13.284;2022-09-09T10:17:36;24.10;99.90
12604;DHT22;6367;52.508;13.284;2022-09-09T10:20:14;24.30;99.90
12604;DHT22;6367;52.508;13.284;2022-09-09T10:22:49;24.30;99.90
12604;DHT22;6367;52.508;13.284;2022-09-09T10:33:57;24.60;99.90
12604;DHT22;6367;52.508;13.284;2022-09-09T10:36:25;24.60;99.90
12604;DHT22;6367;52.508;13.284;2022-09-09T10:39:08;24.60;99.90
12604;DHT22;6367;52.508;13.284;2022-09-09T10:41:50;25.10;99.90
12604;DHT22;6367;52.508;13.284;2022-09-09T10:47:28;24.80;99.90
12604;DHT22;6367;52.508;13.284;2022-09-09T10:55:42;24.60;99.90
12604;DHT22;6367;52.508;13.284;2022-09-09T10:58:14;24.60;99.90
12604;DHT22;6367;52.508;13.284;2022-09-09T11:00:45;24.90;99.90
12604;DHT22;6367;52.508;13.284;2022-09-09T11:03:21;24.70;99.90
12604;DHT22;6367;52.508;13.284;2022-09-09T11:05:55;25.50;99.90
12604;DHT22;6367;52.508;13.284;2022-09-09T11:08:29;25.00;99.90
12604;DHT22;6367;52.508;13.284;2022-09-09T11:13:53;25.10;99.90
12604;DHT22;6367;52.508;13.284;2022-09-09T11:16:28;25.20;99.90
12604;DHT22;6367;52.508;13.284;2022-09-09T11:19:21;25.20;99.90
12604;DHT22;6367;52.508;13.284;2022-09-09T11:21:52;25.30;99.90
12604;DHT22;6367;52.508;13.284;2022-09-09T11:26:57;25.40;99.90
12604;DHT22;6367;52.508;13.284;2022-09-09T11:40:23;25.50;99.40
12604;DHT22;6367;52.508;13.284;2022-09-09T11:43:05;25.50;99.50
12604;DHT22;6367;52.508;13.284;2022-09-09T11:45:35;25.50;99.50
12604;DHT22;6367;52.508;13.284;2022-09-09T11:48:03;25.50;99.20
12604;DHT22;6367;52.508;13.284;2022-09-09T11:50:36;25.70;98.70
12604;DHT22;6367;52.508;13.284;2022-09-09T11:53:19;25.80;97.70
12604;DHT22;6367;52.508;13.284;2022-09-09T11:55:46;25.90;97.40
12604;DHT22;6367;52.508;13.284;2022-09-09T12:03:32;26.30;97.00
12604;DHT22;6367;52.508;13.284;2022-09-09T12:06:08;26.50;95.80
12604;DHT22;6367;52.508;13.284;2022-09-09T12:08:35;26.50;96.00
12604;DHT22;6367;52.508;13.284;2022-09-09T12:11:02;26.50;95.80
12604;DHT22;6367;52.508;13.284;2022-09-09T12:13:31;26.70;95.50
12604;DHT22;6367;52.508;13.284;2022-09-09T12:15:58;26.80;95.00
12604;DHT22;6367;52.508;13.284;2022-09-09T12:18:38;26.80;94.70
12604;DHT22;6367;52.508;13.284;2022-09-09T12:24:08;26.60;94.80
12604;DHT22;6367;52.508;13.284;2022-09-09T12:26:43;26.60;94.90
12604;DHT22;6367;52.508;13.284;2022-09-09T12:29:26;26.50;94.80
12604;DHT22;6367;52.508;13.284;2022-09-09T12:32:02;26.50;94.50
12604;DHT22;6367;52.508;13.284;2022-09-09T12:34:41;26.40;94.20
12604;DHT22;6367;52.508;13.284;2022-09-09T12:37:34;26.20;94.40
12604;DHT22;6367;52.508;13.284;2022-09-09T12:40:04;26.10;94.60
12604;DHT22;6367;52.508;13.284;2022-09-09T12:42:30;26.00;94.60
12604;DHT22;6367;52.508;13.284;2022-09-09T12:45:14;25.90;94.20
12604;DHT22;6367;52.508;13.284;2022-09-09T12:50:26;25.80;94.30
12604;DHT22;6367;52.508;13.284;2022-09-09T12:53:06;25.70;94.00
12604;DHT22;6367;52.508;13.284;2022-09-09T12:55:38;25.70;93.30
12604;DHT22;6367;52.508;13.284;2022-09-09T12:58:05;26.20;93.60
12604;DHT22;6367;52.508;13.284;2022-09-09T13:00:33;26.00;93.50
12604;DHT22;6367;52.508;13.284;2022-09-09T13:03:01;25.60;93.10
12604;DHT22;6367;52.508;13.284;2022-09-09T13:05:34;25.50;93.20
12604;DHT22;6367;52.508;13.284;2022-09-09T13:08:02;25.40;93.50
12604;DHT22;6367;52.508;13.284;2022-09-09T13:10:29;25.40;93.90
12604;DHT22;6367;52.508;13.284;2022-09-09T13:12:56;25.40;94.00
12604;DHT22;6367;52.508;13.284;2022-09-09T13:15:24;25.30;94.00
12604;DHT22;6367;52.508;13.284;2022-09-09T13:17:57;25.30;94.00
12604;DHT22;6367;52.508;13.284;2022-09-09T13:20:26;25.30;93.80
12604;DHT22;6367;52.508;13.284;2022-09-09T13:22:54;25.20;94.00
12604;DHT22;6367;52.508;13.284;2022-09-09T13:25:26;25.20;94.10
12604;DHT22;6367;52.508;13.284;2022-09-09T13:27:59;25.10;94.30
12604;DHT22;6367;52.508;13.284;2022-09-09T13:30:33;25.20;94.40
12604;DHT22;6367;52.508;13.284;2022-09-09T13:33:05;25.00;94.90
12604;DHT22;6367;52.508;13.284;2022-09-09T13:35:32;25.00;94.80
12604;DHT22;6367;52.508;13.284;2022-09-09T13:37:59;25.00;94.80
12604;DHT22;6367;52.508;13.284;2022-09-09T13:40:31;25.00;94.80
12604;DHT22;6367;52.508;13.284;2022-09-09T13:42:57;25.00;94.80
12604;DHT22;6367;52.508;13.284;2022-09-09T13:45:25;24.90;95.00
12604;DHT22;6367;52.508;13.284;2022-09-09T13:47:54;24.90;95.20
12604;DHT22;6367;52.508;13.284;2022-09-09T13:50:28;25.00;95.40
12604;DHT22;6367;52.508;13.284;2022-09-09T13:52:55;25.10;95.30
12604;DHT22;6367;52.508;13.284;2022-09-09T13:55:25;25.20;95.40
12604;DHT22;6367;52.508;13.284;2022-09-09T14:00:25;25.40;94.80
12604;DHT22;6367;52.508;13.284;2022-09-09T14:02:51;25.60;94.70
12604;DHT22;6367;52.508;13.284;2022-09-09T14:05:18;25.90;94.80
12604;DHT22;6367;52.508;13.284;2022-09-09T14:07:44;25.90;94.60
12604;DHT22;6367;52.508;13.284;2022-09-09T14:10:11;25.80;93.90
12604;DHT22;6367;52.508;13.284;2022-09-09T14:12:37;25.70;93.70
12604;DHT22;6367;52.508;13.284;2022-09-09T14:15:05;25.70;93.60
12604;DHT22;6367;52.508;13.284;2022-09-09T14:17:31;25.80;93.40
12604;DHT22;6367;52.508;13.284;2022-09-09T14:19:57;25.60;93.00
12604;DHT22;6367;52.508;13.284;2022-09-09T14:22:24;25.60;93.20
12604;DHT22;6367;52.508;13.284;2022-09-09T14:24:49;25.50;93.30
12604;DHT22;6367;52.508;13.284;2022-09-09T14:27:16;25.50;93.50
12604;DHT22;6367;52.508;13.284;2022-09-09T14:29:43;25.40;93.90
12604;DHT22;6367;52.508;13.284;2022-09-09T14:32:09;25.40;93.90
12604;DHT22;6367;52.508;13.284;2022-09-09T14:34:35;25.40;93.90
12604;DHT22;6367;52.508;13.284;2022-09-09T14:37:00;25.80;94.00
12604;DHT22;6367;52.508;13.284;2022-09-09T14:39:26;26.10;94.20
12604;DHT22;6367;52.508;13.284;2022-09-09T14:41:52;25.50;94.00
12604;DHT22;6367;52.508;13.284;2022-09-09T14:44:17;25.50;94.00
12604;DHT22;6367;52.508;13.284;2022-09-09T14:46:44;25.50;94.10
12604;DHT22;6367;52.508;13.284;2022-09-09T14:49:10;25.40;94.30
12604;DHT22;6367;52.508;13.284;2022-09-09T14:51:36;25.40;94.40
12604;DHT22;6367;52.508;13.284;2022-09-09T14:54:02;25.30;94.30
12604;DHT22;6367;52.508;13.284;2022-09-09T14:56:31;25.30;94.20
12604;DHT22;6367;52.508;13.284;2022-09-09T14:58:58;25.20;94.00
12604;DHT22;6367;52.508;13.284;2022-09-09T15:01:25;25.20;94.00
12604;DHT22;6367;52.508;13.284;2022-09-09T15:03:58;25.10;94.00
12604;DHT22;6367;52.508;13.284;2022-09-09T15:06:25;25.20;94.00
12604;DHT22;6367;52.508;13.284;2022-09-09T15:08:52;25.10;94.40
12604;DHT22;6367;52.508;13.284;2022-09-09T15:11:18;25.10;94.60
12604;DHT22;6367;52.508;13.284;2022-09-09T15:13:46;25.70;94.90
12604;DHT22;6367;52.508;13.284;2022-09-09T15:16:19;25.20;95.20
12604;DHT22;6367;52.508;13.284;2022-09-09T15:18:46;25.00;95.10
12604;DHT22;6367;52.508;13.284;2022-09-09T15:21:14;25.10;95.50
12604;DHT22;6367;52.508;13.284;2022-09-09T15:23:39;25.00;95.20
12604;DHT22;6367;52.508;13.284;2022-09-09T15:26:06;25.00;95.20
12604;DHT22;6367;52.508;13.284;2022-09-09T15:28:36;24.90;95.20
12604;DHT22;6367;52.508;13.284;2022-09-09T15:31:06;24.90;95.20
12604;DHT22;6367;52.508;13.284;2022-09-09T15:33:32;24.80;95.20
12604;DHT22;6367;52.508;13.284;2022-09-09T15:35:59;24.80;95.30
12604;DHT22;6367;52.508;13.284;2022-09-09T15:38:24;24.80;95.30
12604;DHT22;6367;52.508;13.284;2022-09-09T15:40:54;24.80;95.20
12604;DHT22;6367;52.508;13.284;2022-09-09T15:43:21;24.80;95.30
12604;DHT22;6367;52.508;13.284;2022-09-09T15:45:52;24.70;95.40
12604;DHT22;6367;52.508;13.284;2022-09-09T15:48:31;25.00;95.60
12604;DHT22;6367;52.508;13.284;2022-09-09T15:51:03;24.60;95.50
12604;DHT22;6367;52.508;13.284;2022-09-09T15:53:30;24.60;95.40
12604;DHT22;6367;52.508;13.284;2022-09-09T15:55:58;24.50;95.40
12604;DHT22;6367;52.508;13.284;2022-09-09T15:58:24;24.50;95.40
12604;DHT22;6367;52.508;13.284;2022-09-09T16:00:49;24.50;95.40
12604;DHT22;6367;52.508;13.284;2022-09-09T16:03:15;24.40;95.40
12604;DHT22;6367;52.508;13.284;2022-09-09T16:05:41;24.40;95.50
12604;DHT22;6367;52.508;13.284;2022-09-09T16:08:06;24.40;95.60
12604;DHT22;6367;52.508;13.284;2022-09-09T16:10:32;24.40;95.70
12604;DHT22;6367;52.508;13.284;2022-09-09T16:12:57;24.30;95.70
12604;DHT22;6367;52.508;13.284;2022-09-09T16:15:24;24.40;95.70
12604;DHT22;6367;52.508;13.284;2022-09-09T16:17:53;24.30;95.70
12604;DHT22;6367;52.508;13.284;2022-09-09T16:20:18;24.30;95.70
12604;DHT22;6367;52.508;13.284;2022-09-09T16:22:44;24.30;95.60
12604;DHT22;6367;52.508;13.284;2022-09-09T16:25:09;24.30;95.60
12604;DHT22;6367;52.508;13.284;2022-09-09T16:27:35;24.30;95.60
12604;DHT22;6367;52.508;13.284;2022-09-09T16:30:01;24.30;95.60
12604;DHT22;6367;52.508;13.284;2022-09-09T16:32:26;24.30;95.60
12604;DHT22;6367;52.508;13.284;2022-09-09T16:34:52;24.30;95.60
12604;DHT22;6367;52.508;13.284;2022-09-09T16:37:18;24.40;95.70
12604;DHT22;6367;52.508;13.284;2022-09-09T16:39:44;24.30;95.60
12604;DHT22;6367;52.508;13.284;2022-09-09T16:42:10;24.30;95.70
12604;DHT22;6367;52.508;13.284;2022-09-09T16:44:35;24.40;95.80
12604;DHT22;6367;52.508;13.284;2022-09-09T16:47:01;24.10;95.60
12604;DHT22;6367;52.508;13.284;2022-09-09T16:49:27;24.40;95.70
12604;DHT22;6367;52.508;13.284;2022-09-09T16:51:53;24.30;95.70
12604;DHT22;6367;52.508;13.284;2022-09-09T16:54:19;24.30;95.70
12604;DHT22;6367;52.508;13.284;2022-09-09T16:56:47;24.80;96.40
12604;DHT22;6367;52.508;13.284;2022-09-09T16:59:18;24.30;95.80
12604;DHT22;6367;52.508;13.284;2022-09-09T17:01:45;24.30;95.90
12604;DHT22;6367;52.508;13.284;2022-09-09T17:04:29;24.20;95.90
12604;DHT22;6367;52.508;13.284;2022-09-09T17:06:56;24.20;96.00
12604;DHT22;6367;52.508;13.284;2022-09-09T17:09:23;24.20;96.00
12604;DHT22;6367;52.508;13.284;2022-09-09T17:11:53;24.10;96.40
12604;DHT22;6367;52.508;13.284;2022-09-09T17:14:21;24.10;96.20
12604;DHT22;6367;52.508;13.284;2022-09-09T17:16:47;24.10;96.30
12604;DHT22;6367;52.508;13.284;2022-09-09T17:19:13;24.10;96.30
12604;DHT22;6367;52.508;13.284;2022-09-09T17:21:39;24.10;96.40
12604;DHT22;6367;52.508;13.284;2022-09-09T17:24:04;24.00;96.50
12604;DHT22;6367;52.508;13.284;2022-09-09T17:26:31;24.00;96.60
12604;DHT22;6367;52.508;13.284;2022-09-09T17:28:59;24.00;96.50
12604;DHT22;6367;52.508;13.284;2022-09-09T17:31:26;24.00;96.30
12604;DHT22;6367;52.508;13.284;2022-09-09T17:33:54;23.90;96.30
12604;DHT22;6367;52.508;13.284;2022-09-09T17:36:22;23.80;96.50
12604;DHT22;6367;52.508;13.284;2022-09-09T17:38:48;23.80;96.70
12604;DHT22;6367;52.508;13.284;2022-09-09T17:41:23;23.90;96.80
12604;DHT22;6367;52.508;13.284;2022-09-09T17:43:50;23.70;96.80
12604;DHT22;6367;52.508;13.284;2022-09-09T17:46:22;23.70;97.10
12604;DHT22;6367;52.508;13.284;2022-09-09T17:48:50;23.60;96.70
12604;DHT22;6367;52.508;13.284;2022-09-09T17:51:20;23.90;96.90
12604;DHT22;6367;52.508;13.284;2022-09-09T17:53:50;23.40;97.10